createdAt,value
2022-12-19T00:03:17.591Z,97.70
2022-12-19T00:07:22.004Z,97.30
2022-12-19T00:11:26.093Z,97.10
2022-12-19T00:15:28.957Z,97.00
2022-12-19T00:19:31.772Z,96.60
2022-12-19T00:23:36.170Z,96.50
2022-12-19T00:27:38.975Z,96.60
2022-12-19T00:31:42.000Z,96.80
2022-12-19T00:35:44.975Z,97.00
2022-12-19T00:39:49.414Z,97.10
2022-12-19T00:43:54.154Z,97.30
2022-12-19T00:47:57.006Z,97.60
2022-12-19T00:52:01.400Z,97.80
2022-12-19T00:56:11.135Z,98.00
2022-12-19T01:00:16.655Z,98.30
2022-12-19T01:04:28.229Z,98.40
2022-12-19T01:08:32.224Z,98.60
2022-12-19T01:12:48.575Z,98.60
2022-12-19T01:16:52.090Z,98.50
2022-12-19T01:20:54.968Z,98.60
2022-12-19T01:24:57.843Z,98.70
2022-12-19T01:29:02.058Z,98.80
2022-12-19T01:33:05.006Z,98.80
2022-12-19T01:37:07.816Z,99.10
2022-12-19T01:41:11.935Z,99.10
2022-12-19T01:45:34.500Z,99.30
2022-12-19T01:49:38.349Z,99.20
2022-12-19T01:53:48.810Z,99.20
2022-12-19T01:57:53.322Z,99.40
2022-12-19T02:02:05.215Z,99.40
2022-12-19T02:06:09.440Z,99.60
2022-12-19T02:10:12.706Z,99.40
2022-12-19T02:14:15.821Z,99.60
2022-12-19T02:18:34.290Z,99.70
2022-12-19T02:22:51.176Z,99.70
2022-12-19T02:27:11.503Z,99.60
2022-12-19T02:31:20.637Z,99.40
2022-12-19T02:35:32.063Z,99.50
2022-12-19T02:39:40.501Z,99.50
2022-12-19T02:43:48.697Z,99.40
2022-12-19T02:47:55.852Z,99.40
2022-12-19T02:51:59.093Z,99.10
2022-12-19T02:56:18.429Z,99.30
2022-12-19T03:00:27.076Z,99.10
2022-12-19T03:04:45.521Z,99.20
2022-12-19T03:08:53.590Z,99.20
2022-12-19T03:13:01.500Z,99.20
2022-12-19T03:17:06.643Z,99.20
2022-12-19T03:21:21.471Z,99.20
2022-12-19T03:25:26.695Z,99.20
2022-12-19T03:29:35.081Z,99.20
2022-12-19T03:33:40.291Z,99.10
2022-12-19T03:37:46.532Z,99.00
2022-12-19T03:42:09.239Z,98.80
2022-12-19T03:46:17.313Z,98.90
2022-12-19T03:50:20.593Z,98.90
2022-12-19T03:54:28.374Z,99.00
2022-12-19T03:58:35.518Z,99.00
2022-12-19T04:02:40.727Z,98.80
2022-12-19T04:06:45.068Z,98.90
2022-12-19T04:10:52.336Z,98.90
2022-12-19T04:14:55.255Z,98.90
2022-12-19T04:19:04.311Z,98.90
2022-12-19T04:23:15.026Z,98.90
2022-12-19T04:27:21.182Z,98.90
2022-12-19T04:31:27.457Z,99.00
2022-12-19T04:35:30.398Z,99.00
2022-12-19T04:39:35.849Z,99.00
2022-12-19T04:43:40.076Z,99.20
2022-12-19T04:47:42.924Z,99.30
2022-12-19T04:51:45.772Z,99.50
2022-12-19T04:55:48.616Z,99.70
2022-12-19T04:59:52.790Z,99.90
2022-12-19T05:03:58.730Z,99.90
2022-12-19T05:08:04.136Z,99.90
2022-12-19T05:12:07.853Z,99.90
2022-12-19T05:16:14.900Z,99.90
2022-12-19T05:20:17.920Z,99.90
2022-12-19T05:24:20.804Z,99.90
2022-12-19T05:28:23.642Z,99.90
2022-12-19T05:32:31.177Z,99.90
2022-12-19T05:36:34.122Z,99.90
2022-12-19T05:40:37.042Z,99.90
2022-12-19T05:44:40.417Z,99.90
2022-12-19T05:48:44.590Z,99.90
2022-12-19T05:52:47.702Z,99.90
2022-12-19T05:56:50.568Z,99.90
2022-12-19T06:00:55.793Z,99.90
2022-12-19T06:05:03.646Z,99.90
2022-12-19T06:09:06.531Z,99.90
2022-12-19T06:55:21.571Z,99.90
2022-12-19T07:11:30.204Z,99.90
2022-12-19T07:16:08.840Z,99.90
2022-12-19T07:20:29.278Z,99.90
2022-12-19T07:53:07.657Z,99.90
2022-12-19T07:57:23.396Z,99.90
2022-12-19T08:12:49.237Z,99.90
2022-12-19T08:17:20.926Z,99.90
2022-12-19T08:21:24.300Z,99.90
2022-12-19T08:25:28.138Z,99.90
2022-12-19T08:29:32.683Z,99.90
2022-12-19T08:33:35.847Z,99.90
2022-12-19T08:37:38.757Z,99.90
2022-12-19T08:41:41.583Z,99.90
2022-12-19T08:45:47.956Z,99.90
2022-12-19T08:49:50.807Z,99.90
2022-12-19T08:53:53.646Z,99.90
2022-12-19T08:57:56.443Z,99.90
2022-12-19T09:02:01.526Z,99.90
2022-12-19T09:06:12.139Z,99.90
2022-12-19T09:10:20.557Z,99.90
2022-12-19T09:14:23.768Z,99.90
2022-12-19T09:18:28.004Z,99.90
2022-12-19T09:22:30.858Z,99.90
2022-12-19T09:26:33.983Z,99.90
2022-12-19T09:30:36.943Z,99.90
2022-12-19T09:34:41.283Z,99.90
2022-12-19T09:38:44.296Z,99.90
2022-12-19T09:42:59.541Z,99.90
2022-12-19T09:47:05.199Z,99.90
2022-12-19T09:51:14.601Z,99.90
2022-12-19T09:55:24.823Z,99.90
2022-12-19T09:59:41.407Z,99.90
2022-12-19T10:04:03.262Z,99.90
2022-12-19T10:08:18.401Z,99.90
2022-12-19T10:12:51.176Z,99.90
2022-12-19T10:17:24.088Z,99.90
2022-12-19T10:22:15.664Z,99.90
2022-12-19T10:26:05.449Z,99.90
2022-12-19T10:30:15.511Z,99.90
2022-12-19T10:34:21.398Z,99.90
2022-12-19T10:38:30.016Z,99.90
2022-12-19T10:42:50.010Z,99.90
2022-12-19T10:46:53.141Z,99.90
2022-12-19T10:50:56.311Z,99.90
2022-12-19T10:54:59.134Z,99.90
2022-12-19T10:59:03.410Z,99.90
2022-12-19T11:03:16.845Z,99.90
2022-12-19T11:07:23.091Z,99.90
2022-12-19T11:11:52.322Z,99.90
2022-12-19T11:19:33.864Z,99.90
2022-12-19T11:29:29.802Z,99.90
2022-12-19T11:30:06.371Z,99.90
2022-12-19T11:31:55.698Z,99.90
2022-12-19T11:33:47.795Z,99.90
2022-12-19T11:37:55.665Z,99.90
2022-12-19T11:42:02.785Z,99.90
2022-12-19T11:46:13.873Z,99.90
2022-12-19T11:50:27.387Z,99.90
2022-12-19T11:54:33.937Z,99.90
2022-12-19T11:58:36.813Z,99.90
2022-12-19T12:02:58.055Z,99.90
2022-12-19T12:07:05.793Z,99.90
2022-12-19T12:17:11.459Z,99.90
2022-12-19T12:26:25.909Z,99.90
2022-12-19T12:31:20.529Z,99.90
2022-12-19T12:32:01.911Z,99.90
2022-12-19T12:32:02.271Z,99.90
2022-12-19T12:35:46.566Z,99.90
2022-12-19T12:39:01.957Z,99.90
2022-12-19T12:43:21.229Z,99.90
2022-12-19T12:47:25.890Z,99.90
2022-12-19T12:51:29.243Z,99.90
2022-12-19T12:55:35.559Z,99.90
2022-12-19T12:59:39.733Z,99.90
2022-12-19T13:03:44.076Z,99.90
2022-12-19T13:07:53.175Z,99.90
2022-12-19T13:12:21.092Z,99.90
2022-12-19T13:16:54.150Z,99.90
2022-12-19T13:20:57.541Z,99.90
2022-12-19T13:25:01.416Z,99.90
2022-12-19T13:29:27.967Z,99.90
2022-12-19T13:39:57.947Z,99.90
2022-12-19T13:42:45.194Z,99.90
2022-12-19T13:46:48.333Z,99.90
2022-12-19T13:50:52.735Z,99.90
2022-12-19T13:54:59.793Z,99.90
2022-12-19T13:59:04.856Z,99.90
2022-12-19T14:03:16.353Z,99.90
2022-12-19T14:07:36.665Z,99.90
2022-12-19T14:13:43.020Z,99.90
2022-12-19T14:16:07.081Z,99.90
2022-12-19T14:22:10.309Z,99.90
2022-12-19T14:24:55.073Z,99.90
2022-12-19T14:29:45.569Z,99.80
2022-12-19T14:39:23.275Z,99.80
2022-12-19T14:43:58.724Z,99.70
2022-12-19T14:54:07.206Z,99.90
2022-12-19T14:54:22.081Z,99.70
2022-12-19T15:01:10.175Z,99.90
2022-12-19T15:05:16.783Z,99.80
2022-12-19T15:11:03.596Z,99.70
2022-12-19T15:14:51.746Z,99.80
2022-12-19T15:18:21.275Z,99.90
2022-12-19T15:22:26.681Z,99.90
2022-12-19T15:26:32.415Z,99.90
2022-12-19T15:30:38.314Z,99.90
2022-12-19T15:34:50.616Z,99.90
2022-12-19T15:38:55.813Z,99.90
2022-12-19T15:42:59.548Z,99.90
2022-12-19T15:47:03.323Z,99.90
2022-12-19T15:51:06.559Z,99.90
2022-12-19T15:55:14.401Z,99.90
2022-12-19T15:59:29.860Z,99.90
2022-12-19T16:03:37.983Z,99.90
2022-12-19T16:07:41.100Z,99.90
2022-12-19T16:11:46.600Z,99.90
2022-12-19T16:15:50.391Z,99.90
2022-12-19T16:19:53.679Z,99.90
2022-12-19T16:23:56.530Z,99.90
2022-12-19T16:28:02.063Z,99.90
2022-12-19T16:32:05.889Z,99.90
2022-12-19T16:36:10.687Z,99.90
2022-12-19T16:40:19.167Z,99.90
2022-12-19T16:44:25.439Z,99.90
2022-12-19T16:48:30.212Z,99.90
2022-12-19T16:52:37.468Z,99.90
2022-12-19T16:56:48.778Z,99.90
2022-12-19T17:00:54.815Z,99.90
2022-12-19T17:04:58.731Z,99.90
2022-12-19T17:09:01.605Z,99.90
2022-12-19T17:13:04.951Z,99.90
2022-12-19T17:17:14.549Z,99.80
2022-12-19T17:21:19.482Z,99.40
2022-12-19T17:25:24.520Z,99.10
2022-12-19T17:29:27.350Z,98.80
2022-12-19T17:33:36.490Z,98.90
2022-12-19T17:37:39.342Z,98.80
2022-12-19T17:41:42.217Z,98.80
2022-12-19T17:45:45.541Z,98.90
2022-12-19T17:49:50.856Z,99.00
2022-12-19T17:53:54.009Z,99.00
2022-12-19T17:57:57.908Z,99.00
2022-12-19T18:02:01.344Z,99.00
2022-12-19T18:06:11.934Z,99.00
2022-12-19T18:10:16.724Z,98.90
2022-12-19T18:14:21.330Z,99.10
2022-12-19T18:18:28.823Z,99.20
2022-12-19T18:22:33.066Z,99.30
2022-12-19T18:26:36.703Z,99.30
2022-12-19T18:30:40.091Z,99.20
2022-12-19T18:34:43.868Z,99.10
2022-12-19T18:38:48.607Z,99.20
2022-12-19T18:42:51.559Z,99.30
2022-12-19T18:46:54.460Z,99.50
2022-12-19T18:50:58.436Z,99.60
2022-12-19T18:55:02.660Z,99.80
2022-12-19T18:59:05.539Z,99.90
2022-12-19T19:03:14.633Z,99.70
2022-12-19T19:07:17.644Z,99.40
2022-12-19T19:11:23.377Z,99.20
2022-12-19T19:15:30.014Z,99.00
2022-12-19T19:19:42.340Z,99.10
2022-12-19T19:23:55.179Z,99.10
2022-12-19T19:27:59.450Z,99.30
2022-12-19T19:32:02.824Z,99.30
2022-12-19T19:36:12.249Z,99.50
2022-12-19T19:40:15.866Z,99.60
2022-12-19T19:44:20.090Z,99.60
2022-12-19T19:48:22.973Z,99.70
2022-12-19T19:52:25.850Z,99.80
2022-12-19T19:56:28.777Z,99.90
2022-12-19T20:00:33.122Z,99.90
2022-12-19T20:04:36.183Z,99.90
2022-12-19T20:09:09.473Z,99.90
2022-12-19T20:13:13.169Z,99.90
2022-12-19T20:17:17.564Z,99.90
2022-12-19T20:21:21.272Z,99.90
2022-12-19T20:25:24.144Z,99.90
2022-12-19T20:29:27.955Z,99.90
2022-12-19T20:33:32.633Z,99.90
2022-12-19T20:37:35.477Z,99.90
2022-12-19T20:41:38.543Z,99.90
2022-12-19T20:45:41.342Z,99.90
2022-12-19T20:49:45.537Z,99.70
2022-12-19T20:53:49.339Z,99.90
2022-12-19T20:57:52.438Z,99.80
2022-12-19T21:01:56.415Z,99.70
2022-12-19T21:06:01.825Z,99.70
2022-12-19T21:10:05.109Z,99.80
2022-12-19T21:14:07.991Z,99.80
2022-12-19T21:18:11.806Z,99.90
2022-12-19T21:22:17.270Z,99.90
2022-12-19T21:26:20.369Z,99.90
2022-12-19T21:30:23.805Z,99.90
2022-12-19T21:34:26.856Z,99.90
2022-12-19T21:38:31.104Z,99.90
2022-12-19T21:42:33.981Z,99.90
2022-12-19T21:46:37.382Z,99.90
2022-12-19T21:50:40.463Z,99.90
2022-12-19T21:54:44.718Z,99.90
2022-12-19T21:58:47.573Z,99.90
2022-12-19T22:03:12.670Z,99.90
2022-12-19T22:07:15.333Z,99.90
2022-12-19T22:11:21.749Z,99.90
2022-12-19T22:15:25.205Z,99.90
2022-12-19T22:19:28.394Z,99.90
2022-12-19T22:23:32.012Z,99.90
2022-12-19T22:27:36.201Z,99.90
2022-12-19T22:31:40.009Z,99.90
2022-12-19T22:35:43.522Z,99.90
2022-12-19T22:39:46.363Z,99.90
2022-12-19T22:43:50.562Z,99.90
2022-12-19T22:47:53.369Z,99.90
2022-12-19T22:51:56.224Z,99.90
2022-12-19T22:55:59.180Z,99.90
2022-12-19T23:00:03.979Z,99.90
2022-12-19T23:04:08.581Z,99.90
2022-12-19T23:08:11.576Z,99.90
2022-12-19T23:12:15.677Z,99.90
2022-12-19T23:16:20.044Z,99.90
2022-12-19T23:20:22.918Z,99.90
2022-12-19T23:24:26.222Z,99.90
2022-12-19T23:28:29.165Z,99.90
2022-12-19T23:32:34.544Z,99.90
2022-12-19T23:37:09.769Z,99.90
2022-12-19T23:41:01.358Z,99.90
2022-12-19T23:45:04.885Z,99.90
2022-12-19T23:49:09.127Z,99.90
2022-12-19T23:53:11.961Z,99.90
2022-12-19T23:57:14.773Z,99.90
